createdAt,value
2018-11-04T00:04:37.175Z,26.07
2018-11-04T00:09:41.709Z,27.30
2018-11-04T00:14:46.398Z,28.25
2018-11-04T00:19:50.795Z,26.42
2018-11-04T00:24:55.835Z,26.75
2018-11-04T00:31:03.900Z,26.93
2018-11-04T00:36:08.453Z,26.05
2018-11-04T00:41:12.934Z,27.48
2018-11-04T00:46:17.511Z,30.70
2018-11-04T00:51:22.820Z,33.30
2018-11-04T00:56:27.109Z,29.45
2018-11-04T01:07:00.082Z,28.40
2018-11-04T01:12:05.342Z,27.00
2018-11-04T01:17:10.462Z,28.10
2018-11-04T01:22:14.904Z,26.23
2018-11-04T01:27:19.425Z,26.48
2018-11-04T01:32:23.986Z,25.57
2018-11-04T01:37:28.496Z,29.02
2018-11-04T01:42:32.940Z,30.77
2018-11-04T01:47:37.576Z,27.93
2018-11-04T01:52:42.214Z,32.08
2018-11-04T01:57:47.580Z,30.92
2018-11-04T02:02:52.265Z,28.75
2018-11-04T02:07:56.926Z,32.10
2018-11-04T02:13:02.556Z,29.80
2018-11-04T02:18:07.842Z,29.92
2018-11-04T02:23:12.204Z,31.77
2018-11-04T02:28:16.650Z,30.55
2018-11-04T02:33:21.400Z,29.42
2018-11-04T02:38:26.210Z,30.17
2018-11-04T02:43:30.698Z,31.60
2018-11-04T02:48:35.676Z,30.05
2018-11-04T02:53:40.158Z,31.30
2018-11-04T02:58:44.665Z,31.33
2018-11-04T03:03:49.089Z,32.50
2018-11-04T03:08:53.502Z,31.95
2018-11-04T03:13:58.056Z,27.75
2018-11-04T03:19:03.757Z,32.60
2018-11-04T03:24:08.266Z,35.03
2018-11-04T03:29:12.806Z,31.27
2018-11-04T03:34:17.228Z,31.68
2018-11-04T03:39:21.848Z,29.77
2018-11-04T03:44:26.289Z,29.80
2018-11-04T03:49:30.595Z,31.95
2018-11-04T03:54:35.677Z,32.53
2018-11-04T03:59:40.407Z,39.10
2018-11-04T04:04:45.421Z,32.42
2018-11-04T04:09:50.161Z,32.42
2018-11-04T04:14:55.090Z,33.38
2018-11-04T04:19:59.723Z,33.58
2018-11-04T04:25:04.366Z,35.25
2018-11-04T04:30:10.471Z,37.50
2018-11-04T04:35:15.297Z,37.80
2018-11-04T04:40:19.704Z,37.95
2018-11-04T04:45:24.548Z,40.58
2018-11-04T04:50:29.447Z,39.98
2018-11-04T04:55:34.370Z,41.35
2018-11-04T05:00:39.840Z,37.20
2018-11-04T05:05:44.877Z,36.05
2018-11-04T05:10:49.588Z,39.27
2018-11-04T05:15:54.069Z,39.83
2018-11-04T05:20:58.722Z,36.60
2018-11-04T05:26:03.259Z,38.50
2018-11-04T05:31:08.531Z,30.17
2018-11-04T05:36:14.055Z,31.73
2018-11-04T05:41:18.487Z,27.07
2018-11-04T05:46:23.033Z,35.20
2018-11-04T05:51:28.469Z,31.85
2018-11-04T05:56:33.447Z,28.27
2018-11-04T06:01:38.148Z,29.32
2018-11-04T06:06:42.788Z,28.05
2018-11-04T06:11:47.216Z,31.40
2018-11-04T06:16:51.896Z,29.25
2018-11-04T06:21:56.540Z,29.72
2018-11-04T06:27:01.704Z,30.75
2018-11-04T06:32:06.164Z,29.50
2018-11-04T06:37:12.651Z,27.45
2018-11-04T06:42:23.003Z,27.00
2018-11-04T06:47:27.588Z,26.77
2018-11-04T06:52:34.175Z,28.52
2018-11-04T06:57:50.911Z,28.98
2018-11-04T07:02:57.499Z,31.80
2018-11-04T07:08:01.910Z,32.03
2018-11-04T07:13:06.939Z,29.92
2018-11-04T07:18:12.452Z,26.35
2018-11-04T07:23:16.909Z,27.67
2018-11-04T07:28:21.476Z,29.90
2018-11-04T07:33:26.131Z,28.50
2018-11-04T07:38:30.735Z,30.65
2018-11-04T07:43:35.140Z,30.48
2018-11-04T07:48:40.011Z,32.67
2018-11-04T07:53:45.712Z,31.15
2018-11-04T07:58:50.281Z,32.70
2018-11-04T08:03:54.782Z,29.63
2018-11-04T08:08:59.358Z,31.65
2018-11-04T08:14:03.966Z,30.37
2018-11-04T08:19:08.874Z,34.05
2018-11-04T08:24:13.974Z,29.60
2018-11-04T08:29:18.347Z,34.38
2018-11-04T08:34:22.974Z,33.35
2018-11-04T08:39:27.605Z,34.45
2018-11-04T08:44:33.017Z,33.30
2018-11-04T08:49:38.280Z,32.45
2018-11-04T08:54:43.026Z,30.15
2018-11-04T08:59:47.464Z,32.83
2018-11-04T09:04:52.245Z,30.97
2018-11-04T09:09:57.456Z,30.10
2018-11-04T09:15:02.415Z,27.35
2018-11-04T09:20:08.998Z,32.38
2018-11-04T09:25:13.896Z,32.88
2018-11-04T09:30:18.502Z,32.50
2018-11-04T09:35:22.808Z,30.52
2018-11-04T09:40:28.008Z,31.82
2018-11-04T09:45:33.235Z,35.13
2018-11-04T09:50:37.878Z,32.83
2018-11-04T09:55:42.391Z,28.65
2018-11-04T10:00:47.237Z,30.88
2018-11-04T10:05:51.588Z,27.85
2018-11-04T10:10:56.016Z,28.60
2018-11-04T10:16:01.144Z,29.55
2018-11-04T10:21:06.103Z,32.25
2018-11-04T10:26:10.332Z,28.80
2018-11-04T10:31:16.099Z,28.67
2018-11-04T10:36:21.453Z,32.80
2018-11-04T10:41:26.099Z,29.72
2018-11-04T10:46:30.586Z,29.20
2018-11-04T10:51:35.537Z,30.97
2018-11-04T10:56:40.026Z,28.42
2018-11-04T11:01:44.605Z,28.15
2018-11-04T11:06:49.454Z,27.55
2018-11-04T11:11:54.134Z,27.85
2018-11-04T11:17:00.080Z,30.82
2018-11-04T11:22:04.553Z,27.98
2018-11-04T11:27:09.379Z,25.23
2018-11-04T11:32:13.839Z,27.87
2018-11-04T11:37:19.161Z,27.65
2018-11-04T11:42:25.073Z,23.98
2018-11-04T11:47:29.570Z,23.30
2018-11-04T11:52:33.942Z,28.00
2018-11-04T11:57:38.336Z,26.42
2018-11-04T12:02:43.042Z,23.87
2018-11-04T12:07:48.058Z,27.55
2018-11-04T12:12:52.866Z,27.20
2018-11-04T12:17:58.209Z,26.20
2018-11-04T12:23:03.939Z,25.62
2018-11-04T12:28:08.504Z,26.70
2018-11-04T12:33:13.405Z,26.52
2018-11-04T12:38:18.263Z,28.25
2018-11-04T12:43:22.795Z,27.45
2018-11-04T12:48:27.290Z,26.48
2018-11-04T12:53:31.739Z,25.62
2018-11-04T12:58:42.636Z,23.38
2018-11-04T13:03:47.169Z,29.65
2018-11-04T13:08:51.621Z,30.02
2018-11-04T13:13:56.105Z,29.42
2018-11-04T13:19:00.536Z,22.70
2018-11-04T13:24:06.494Z,24.15
2018-11-04T13:29:10.823Z,29.07
2018-11-04T13:34:14.952Z,27.62
2018-11-04T13:39:19.314Z,23.83
2018-11-04T13:44:23.705Z,24.43
2018-11-04T13:49:29.356Z,26.60
2018-11-04T13:54:33.930Z,25.55
2018-11-04T13:59:38.849Z,25.55
2018-11-04T14:04:44.089Z,26.07
2018-11-04T14:09:49.650Z,25.75
2018-11-04T14:14:54.075Z,25.55
2018-11-04T14:19:58.475Z,24.55
2018-11-04T14:25:03.003Z,24.90
2018-11-04T14:30:11.246Z,26.00
2018-11-04T14:35:15.794Z,23.15
2018-11-04T14:45:54.687Z,22.80
2018-11-04T14:50:59.066Z,24.50
2018-11-04T14:56:03.468Z,21.15
2018-11-04T15:01:08.596Z,22.35
2018-11-04T15:06:12.551Z,24.77
2018-11-04T15:11:16.928Z,25.80
2018-11-04T15:16:21.349Z,25.12
2018-11-04T15:21:25.941Z,19.07
2018-11-04T15:26:30.540Z,20.82
2018-11-04T15:31:34.965Z,21.82
2018-11-04T15:36:39.475Z,21.20
2018-11-04T15:41:43.993Z,22.15
2018-11-04T15:46:48.462Z,25.48
2018-11-04T15:51:53.036Z,21.42
2018-11-04T15:57:02.660Z,25.65
2018-11-04T16:02:06.992Z,25.82
2018-11-04T16:12:39.500Z,24.43
2018-11-04T16:17:45.989Z,24.98
2018-11-04T16:22:51.065Z,29.80
2018-11-04T16:27:56.156Z,22.55
2018-11-04T16:33:00.740Z,26.48
2018-11-04T16:38:06.159Z,26.42
2018-11-04T16:43:11.709Z,29.40
2018-11-04T16:48:16.167Z,28.10
2018-11-04T16:53:20.957Z,29.92
2018-11-04T16:58:26.413Z,26.25
2018-11-04T17:03:30.992Z,28.92
2018-11-04T17:08:35.442Z,27.82
2018-11-04T17:13:39.821Z,30.97
2018-11-04T17:18:44.903Z,24.60
2018-11-04T17:23:50.494Z,24.60
2018-11-04T17:28:55.157Z,27.48
2018-11-04T17:33:59.594Z,27.55
2018-11-04T17:39:05.247Z,28.17
2018-11-04T17:44:10.665Z,27.00
2018-11-04T17:49:15.591Z,26.87
2018-11-04T17:54:20.169Z,31.20
2018-11-04T17:59:25.565Z,29.48
2018-11-04T18:04:29.997Z,31.25
2018-11-04T18:09:34.855Z,31.20
2018-11-04T18:14:39.474Z,39.03
2018-11-04T18:19:44.001Z,32.73
2018-11-04T18:24:48.818Z,25.75
2018-11-04T18:29:53.368Z,30.70
2018-11-04T18:34:57.826Z,34.33
2018-11-04T18:40:03.328Z,30.92
2018-11-04T18:45:09.454Z,39.67
2018-11-04T18:50:14.704Z,35.63
2018-11-04T18:55:19.149Z,31.68
2018-11-04T19:00:23.893Z,35.73
2018-11-04T19:05:28.528Z,34.50
2018-11-04T19:10:33.688Z,36.13
2018-11-04T19:15:41.699Z,27.53
2018-11-04T19:20:53.246Z,29.35
2018-11-04T19:26:00.208Z,33.23
2018-11-04T19:31:06.346Z,33.60
2018-11-04T19:36:11.163Z,29.57
2018-11-04T19:41:19.386Z,30.92
2018-11-04T19:46:28.121Z,30.15
2018-11-04T19:51:32.817Z,33.50
2018-11-04T19:56:38.348Z,27.07
2018-11-04T20:01:43.563Z,31.90
2018-11-04T20:06:48.262Z,30.03
2018-11-04T20:11:53.149Z,34.23
2018-11-04T20:16:58.048Z,34.73
2018-11-04T20:22:03.716Z,28.35
2018-11-04T20:27:09.495Z,28.37
2018-11-04T20:32:19.233Z,25.23
2018-11-04T20:37:23.868Z,33.80
2018-11-04T20:42:29.006Z,30.63
2018-11-04T20:47:40.316Z,26.37
2018-11-04T20:52:44.909Z,27.87
2018-11-04T20:57:57.906Z,29.93
2018-11-04T21:03:02.714Z,32.60
2018-11-04T21:08:07.856Z,28.83
2018-11-04T21:13:12.808Z,32.47
2018-11-04T21:18:17.891Z,27.13
2018-11-04T21:23:22.737Z,29.57
2018-11-04T21:28:28.209Z,27.63
2018-11-04T21:33:32.890Z,29.57
2018-11-04T21:38:37.466Z,28.13
2018-11-04T21:43:42.306Z,29.43
2018-11-04T21:48:47.021Z,28.23
2018-11-04T21:53:51.399Z,27.80
2018-11-04T21:58:56.161Z,29.33
2018-11-04T22:04:01.933Z,30.17
2018-11-04T22:09:08.201Z,24.57
2018-11-04T22:14:12.807Z,27.57
2018-11-04T22:19:17.612Z,32.63
2018-11-04T22:24:22.373Z,32.17
2018-11-04T22:29:26.904Z,29.00
2018-11-04T22:34:31.551Z,31.50
2018-11-04T22:39:36.755Z,28.73
2018-11-04T22:44:41.364Z,24.87
2018-11-04T22:49:46.271Z,31.27
2018-11-04T22:54:50.867Z,27.50
2018-11-04T22:59:55.508Z,30.40
2018-11-04T23:05:05.113Z,32.33
2018-11-04T23:10:09.561Z,29.83
2018-11-04T23:15:14.394Z,27.53
2018-11-04T23:20:18.765Z,28.73
2018-11-04T23:25:22.993Z,33.40
2018-11-04T23:30:27.347Z,28.27
2018-11-04T23:35:32.033Z,33.97
2018-11-04T23:40:36.425Z,33.60
2018-11-04T23:45:40.811Z,26.63
2018-11-04T23:50:45.833Z,24.67
2018-11-04T23:55:50.251Z,28.32
